Time;durP1;ratioP1;P1;durP2;ratioP2;P2;SDS_P1;SDS_P2;PMS_P1;PMS_P2;Temp;Humidity;BMP_temperature;BMP_pressure;BME280_temperature;BME280_humidity;BME280_pressure;Samples;Min_cycle;Max_cycle;Signal;HPM_P1;HPM_P2
2022/12/08 00:02:17;;;;;;;7.55;5.32;;;;;;;;;;5114755;28;20031;-60
2022/12/08 00:10:13;;;;;;;5.85;4.47;;;;;;;;;;5114627;28;20120;-60
2022/12/08 00:12:38;;;;;;;6.13;4.68;;;;;;;;;;5114603;28;20523;-60
2022/12/08 00:15:04;;;;;;;6.88;5.15;;;;;;;;;;5114372;28;20080;-60
2022/12/08 00:17:30;;;;;;;5.97;4.88;;;;;;;;;;5114323;28;20023;-60
2022/12/08 00:19:55;;;;;;;7.93;4.82;;;;;;;;;;5114593;28;20042;-59
2022/12/08 00:22:21;;;;;;;5.43;4.60;;;;;;;;;;5114367;28;20031;-60
2022/12/08 00:24:46;;;;;;;7.22;4.80;;;;;;;;;;5114186;27;20034;-60
2022/12/08 00:27:14;;;;;;;7.63;4.78;;;;;;;;;;5114318;28;20027;-60
2022/12/08 00:29:42;;;;;;;6.10;5.05;;;;;;;;;;5114033;28;20020;-59
2022/12/08 00:32:07;;;;;;;9.23;5.35;;;;;;;;;;5114238;28;20095;-60
2022/12/08 00:34:33;;;;;;;6.35;5.00;;;;;;;;;;5113978;28;20111;-60
2022/12/08 00:36:58;;;;;;;6.00;4.55;;;;;;;;;;5113878;28;20028;-59
2022/12/08 00:39:24;;;;;;;6.55;4.80;;;;;;;;;;5113933;28;20024;-60
2022/12/08 00:42:11;;;;;;;5.53;4.40;;;;;;;;;;5113815;28;20023;-60
2022/12/08 00:44:35;;;;;;;7.38;4.85;;;;;;;;;;5113842;28;20719;-60
2022/12/08 00:47:01;;;;;;;6.78;5.03;;;;;;;;;;5113509;28;20381;-60
2022/12/08 00:49:26;;;;;;;5.28;4.40;;;;;;;;;;5113692;28;20045;-60
2022/12/08 00:51:52;;;;;;;5.72;4.60;;;;;;;;;;5113629;28;20029;-60
2022/12/08 00:54:18;;;;;;;6.95;5.15;;;;;;;;;;5113947;28;20027;-60
2022/12/08 00:56:45;;;;;;;6.18;4.68;;;;;;;;;;5113797;28;20083;-60
2022/12/08 00:59:11;;;;;;;5.03;4.53;;;;;;;;;;5113857;28;20524;-60
2022/12/08 01:01:36;;;;;;;6.88;4.85;;;;;;;;;;5113464;28;20027;-60
2022/12/08 01:04:07;;;;;;;7.00;5.10;;;;;;;;;;5112155;28;20096;-60
2022/12/08 01:06:36;;;;;;;6.70;5.00;;;;;;;;;;5113379;28;20061;-60
2022/12/08 01:09:03;;;;;;;6.72;4.68;;;;;;;;;;5113685;28;20028;-60
2022/12/08 01:11:30;;;;;;;8.38;5.13;;;;;;;;;;5113228;28;20063;-60
2022/12/08 01:13:55;;;;;;;6.75;4.80;;;;;;;;;;5113267;28;20031;-60
2022/12/08 01:16:23;;;;;;;7.95;5.07;;;;;;;;;;5113576;28;20034;-60
2022/12/08 01:18:49;;;;;;;6.25;4.60;;;;;;;;;;5113103;28;20031;-60
2022/12/08 01:21:15;;;;;;;6.15;4.75;;;;;;;;;;5113527;28;20196;-60
2022/12/08 01:23:40;;;;;;;7.05;4.90;;;;;;;;;;5112911;28;20030;-60
2022/12/08 01:26:09;;;;;;;6.22;4.55;;;;;;;;;;5113342;28;20459;-60
2022/12/08 01:28:34;;;;;;;5.97;4.43;;;;;;;;;;5112963;28;20030;-60
2022/12/08 01:31:00;;;;;;;6.72;4.93;;;;;;;;;;5113009;28;20023;-60
2022/12/08 01:33:27;;;;;;;6.95;4.70;;;;;;;;;;5112894;28;20024;-60
2022/12/08 01:35:52;;;;;;;6.55;4.63;;;;;;;;;;5113324;28;20115;-60
2022/12/08 01:38:18;;;;;;;5.00;4.30;;;;;;;;;;5113259;28;20100;-60
2022/12/08 01:40:44;;;;;;;6.90;4.97;;;;;;;;;;5112820;28;20080;-61
2022/12/08 01:43:19;;;;;;;6.47;4.50;;;;;;;;;;5113092;28;20103;-60
2022/12/08 01:45:46;;;;;;;6.70;5.10;;;;;;;;;;5113032;28;20032;-60
2022/12/08 01:48:24;;;;;;;6.75;4.43;;;;;;;;;;5112515;28;20058;-60
2022/12/08 01:50:51;;;;;;;5.57;4.57;;;;;;;;;;5112873;28;20058;-60
2022/12/08 01:53:22;;;;;;;5.97;4.40;;;;;;;;;;5112743;28;20025;-60
2022/12/08 01:56:01;;;;;;;5.75;4.60;;;;;;;;;;5112717;28;20538;-60
2022/12/08 01:58:42;;;;;;;7.18;5.10;;;;;;;;;;5113025;28;20039;-60
2022/12/08 02:01:10;;;;;;;7.07;4.45;;;;;;;;;;5112679;28;20471;-60
2022/12/08 02:03:41;;;;;;;7.22;4.65;;;;;;;;;;5112881;28;20067;-60
2022/12/08 02:06:07;;;;;;;7.53;4.95;;;;;;;;;;5112727;28;20468;-60
2022/12/08 02:08:34;;;;;;;6.55;4.88;;;;;;;;;;5112743;28;20031;-60
2022/12/08 02:11:00;;;;;;;6.15;4.78;;;;;;;;;;5112641;28;20471;-60
2022/12/08 02:13:26;;;;;;;6.70;4.95;;;;;;;;;;5112877;28;20031;-59
2022/12/08 02:16:14;;;;;;;7.15;4.85;;;;;;;;;;5112469;28;20035;-60
2022/12/08 02:18:39;;;;;;;6.00;4.95;;;;;;;;;;5112534;28;20493;-60
2022/12/08 02:21:41;;;;;;;7.30;5.30;;;;;;;;;;5112833;28;20111;-60
2022/12/08 02:24:15;;;;;;;5.93;4.53;;;;;;;;;;5112135;28;20031;-60
2022/12/08 02:26:49;;;;;;;6.03;4.80;;;;;;;;;;5112468;28;20024;-60
2022/12/08 02:29:33;;;;;;;6.30;4.80;;;;;;;;;;5112412;28;20110;-60
2022/12/08 02:32:24;;;;;;;6.97;4.70;;;;;;;;;;5112342;28;20026;-60
2022/12/08 02:34:57;;;;;;;5.90;4.80;;;;;;;;;;5112801;28;20035;-59
2022/12/08 02:37:31;;;;;;;5.93;4.75;;;;;;;;;;5116267;28;20065;-60
2022/12/08 02:40:14;;;;;;;6.65;5.05;;;;;;;;;;5116588;28;20461;-60
2022/12/08 02:42:53;;;;;;;6.25;5.18;;;;;;;;;;5116420;27;20089;-60
2022/12/08 02:45:30;;;;;;;7.35;4.63;;;;;;;;;;5116173;28;20047;-60
2022/12/08 02:47:58;;;;;;;6.15;4.57;;;;;;;;;;5115792;28;20436;-60
2022/12/08 02:50:23;;;;;;;7.22;5.00;;;;;;;;;;5115998;28;20031;-60
2022/12/08 02:52:49;;;;;;;6.07;4.90;;;;;;;;;;5115998;28;20019;-60
2022/12/08 02:55:22;;;;;;;7.88;5.35;;;;;;;;;;5116003;28;20020;-60
2022/12/08 02:58:12;;;;;;;6.70;5.30;;;;;;;;;;5116386;28;20027;-60
2022/12/08 03:00:47;;;;;;;;;;;;;;;;;;5116591;28;20019;-60
2022/12/08 03:03:34;;;;;;;6.65;5.10;;;;;;;;;;5115998;28;19912;-59
2022/12/08 03:06:05;;;;;;;7.55;5.15;;;;;;;;;;5116057;28;20383;-60
2022/12/08 03:08:53;;;;;;;7.85;5.28;;;;;;;;;;5115705;28;20031;-60
2022/12/08 03:11:42;;;;;;;6.88;5.30;;;;;;;;;;5116019;28;20047;-60
2022/12/08 03:14:13;;;;;;;7.45;5.10;;;;;;;;;;5115603;28;20034;-60
2022/12/08 03:16:44;;;;;;;6.10;5.10;;;;;;;;;;5115775;28;20100;-60
2022/12/08 03:19:22;;;;;;;6.25;4.93;;;;;;;;;;5115537;28;20402;-60
2022/12/08 03:21:52;;;;;;;7.68;5.18;;;;;;;;;;5115824;28;20275;-59
2022/12/08 03:24:21;;;;;;;7.70;5.28;;;;;;;;;;5115827;28;20077;-60
2022/12/08 03:26:55;;;;;;;6.50;5.13;;;;;;;;;;5115654;28;20024;-60
2022/12/08 03:29:21;;;;;;;6.95;5.18;;;;;;;;;;5115400;28;20077;-60
2022/12/08 03:31:56;;;;;;;5.63;4.65;;;;;;;;;;5115678;28;20028;-60
2022/12/08 03:34:27;;;;;;;6.75;5.05;;;;;;;;;;5115462;28;20026;-60
2022/12/08 03:36:52;;;;;;;;;;;;;;;;;;5115802;28;20028;-60
2022/12/08 03:39:18;;;;;;;6.50;5.10;;;;;;;;;;5115367;28;19912;-60
2022/12/08 03:41:45;;;;;;;7.93;4.68;;;;;;;;;;5115268;28;20028;-59
2022/12/08 03:44:10;;;;;;;7.15;5.10;;;;;;;;;;5115243;27;20051;-60
2022/12/08 03:46:36;;;;;;;6.97;4.72;;;;;;;;;;5114595;28;20169;-59
2022/12/08 03:49:01;;;;;;;5.82;4.80;;;;;;;;;;5114764;28;20475;-60
2022/12/08 03:51:27;;;;;;;8.40;5.50;;;;;;;;;;5115188;28;20028;-59
2022/12/08 03:53:52;;;;;;;7.65;5.25;;;;;;;;;;5115111;28;20467;-60
2022/12/08 03:56:18;;;;;;;7.57;5.53;;;;;;;;;;5114803;28;20027;-59
2022/12/08 03:58:43;;;;;;;6.82;5.00;;;;;;;;;;5114719;28;20054;-60
2022/12/08 04:01:09;;;;;;;7.15;4.90;;;;;;;;;;5114695;28;20026;-60
2022/12/08 04:03:35;;;;;;;6.85;5.10;;;;;;;;;;5115146;28;20024;-59
2022/12/08 04:06:00;;;;;;;7.13;5.10;;;;;;;;;;5114699;28;20379;-60
2022/12/08 04:08:26;;;;;;;7.65;5.35;;;;;;;;;;5114430;28;20038;-60
2022/12/08 04:10:51;;;;;;;8.63;5.45;;;;;;;;;;5114789;28;20023;-60
2022/12/08 04:13:17;;;;;;;7.88;5.38;;;;;;;;;;5114442;28;20487;-60
2022/12/08 04:15:47;;;;;;;7.10;5.43;;;;;;;;;;5114583;28;20028;-60
2022/12/08 04:18:13;;;;;;;8.18;5.55;;;;;;;;;;5114301;28;20523;-60
2022/12/08 04:20:40;;;;;;;8.40;5.22;;;;;;;;;;5114309;28;20066;-60
2022/12/08 04:23:06;;;;;;;7.40;4.93;;;;;;;;;;5114139;28;20471;-60
2022/12/08 04:25:32;;;;;;;8.45;5.20;;;;;;;;;;5114509;28;20033;-60
2022/12/08 04:27:57;;;;;;;7.45;5.28;;;;;;;;;;5114037;28;20537;-60
2022/12/08 04:30:23;;;;;;;9.98;5.30;;;;;;;;;;5114381;28;20078;-60
2022/12/08 04:32:48;;;;;;;7.15;5.40;;;;;;;;;;5114331;28;20382;-60
2022/12/08 04:35:14;;;;;;;8.85;5.35;;;;;;;;;;5114073;28;20420;-60
2022/12/08 04:37:39;;;;;;;8.38;5.45;;;;;;;;;;5114160;28;20053;-60
2022/12/08 04:40:05;;;;;;;8.52;5.35;;;;;;;;;;5113950;28;20483;-60
2022/12/08 04:42:31;;;;;;;8.02;5.38;;;;;;;;;;5114115;28;20379;-60
2022/12/08 04:44:56;;;;;;;8.15;5.45;;;;;;;;;;5113730;28;20067;-60
2022/12/08 04:47:22;;;;;;;7.55;5.20;;;;;;;;;;5113979;28;20058;-60
2022/12/08 04:49:47;;;;;;;8.13;5.63;;;;;;;;;;5114106;28;20551;-60
2022/12/08 04:52:13;;;;;;;7.45;5.32;;;;;;;;;;5113599;28;20076;-60
2022/12/08 04:54:38;;;;;;;6.18;5.15;;;;;;;;;;5113975;28;20110;-59
2022/12/08 04:57:04;;;;;;;5.90;4.88;;;;;;;;;;5113567;28;20110;-60
2022/12/08 04:59:29;;;;;;;9.52;6.05;;;;;;;;;;5113052;28;20178;-60
2022/12/08 05:01:55;;;;;;;7.63;5.53;;;;;;;;;;5113536;28;20079;-60
2022/12/08 05:04:21;;;;;;;6.68;5.25;;;;;;;;;;5113823;27;20038;-60
2022/12/08 05:06:46;;;;;;;7.45;5.10;;;;;;;;;;5113252;28;20029;-60
2022/12/08 05:09:12;;;;;;;8.23;5.22;;;;;;;;;;5113715;28;20062;-60
2022/12/08 05:11:40;;;;;;;7.15;5.32;;;;;;;;;;5113658;28;20027;-60
2022/12/08 05:14:10;;;;;;;5.93;5.00;;;;;;;;;;5113522;28;20028;-60
2022/12/08 05:16:36;;;;;;;8.37;5.30;;;;;;;;;;5113271;28;20495;-60
2022/12/08 05:19:02;;;;;;;7.53;5.35;;;;;;;;;;5113477;28;20031;-60
2022/12/08 05:21:27;;;;;;;7.78;5.47;;;;;;;;;;5113377;28;20379;-60
2022/12/08 05:23:53;;;;;;;8.88;5.90;;;;;;;;;;5113379;28;20031;-60
2022/12/08 05:26:19;;;;;;;7.75;5.28;;;;;;;;;;5113101;28;20028;-60
2022/12/08 05:28:44;;;;;;;6.72;5.20;;;;;;;;;;5112967;28;20032;-60
2022/12/08 05:31:12;;;;;;;7.63;5.45;;;;;;;;;;5113040;28;20070;-60
2022/12/08 05:33:38;;;;;;;8.40;5.32;;;;;;;;;;5113038;28;20032;-60
2022/12/08 05:36:04;;;;;;;7.43;5.60;;;;;;;;;;5113140;28;20030;-60
2022/12/08 05:38:29;;;;;;;5.75;4.88;;;;;;;;;;5112927;28;20031;-60
2022/12/08 05:40:55;;;;;;;7.00;4.80;;;;;;;;;;5112810;28;20024;-60
2022/12/08 05:43:20;;;;;;;8.82;5.50;;;;;;;;;;5113089;28;20024;-60
2022/12/08 05:45:46;;;;;;;7.07;5.32;;;;;;;;;;5112665;28;20055;-60
2022/12/08 05:48:11;;;;;;;7.68;5.28;;;;;;;;;;5112367;28;20059;-60
2022/12/08 05:50:37;;;;;;;6.97;5.30;;;;;;;;;;5112570;28;20426;-59
2022/12/08 05:53:02;;;;;;;6.40;5.10;;;;;;;;;;5112977;28;20118;-59
2022/12/08 05:55:28;;;;;;;6.45;5.07;;;;;;;;;;5112811;28;20352;-59
2022/12/08 05:57:53;;;;;;;6.68;5.20;;;;;;;;;;5112475;28;20020;-59
2022/12/08 06:00:19;;;;;;;6.75;5.30;;;;;;;;;;5112546;28;20020;-59
2022/12/08 06:02:45;;;;;;;5.47;4.50;;;;;;;;;;5112846;28;20416;-59
2022/12/08 06:05:11;;;;;;;6.25;4.85;;;;;;;;;;5112478;28;20058;-60
2022/12/08 06:07:36;;;;;;;6.70;5.30;;;;;;;;;;5111538;28;20036;-60
2022/12/08 06:10:03;;;;;;;7.30;5.05;;;;;;;;;;5114063;28;20360;-60
2022/12/08 06:12:29;;;;;;;6.63;5.18;;;;;;;;;;5116676;28;20119;-60
2022/12/08 06:14:55;;;;;;;6.45;5.22;;;;;;;;;;5116594;28;20106;-60
2022/12/08 06:17:20;;;;;;;7.55;5.45;;;;;;;;;;5115282;28;20031;-60
2022/12/08 06:19:45;;;;;;;7.93;5.28;;;;;;;;;;5116538;28;20032;-59
2022/12/08 06:22:11;;;;;;;6.50;4.95;;;;;;;;;;5116847;27;20551;-60
2022/12/08 06:24:37;;;;;;;7.70;5.70;;;;;;;;;;5116286;28;20028;-59
2022/12/08 06:27:02;;;;;;;6.18;5.10;;;;;;;;;;5116645;28;20482;-60
2022/12/08 06:29:28;;;;;;;6.80;5.10;;;;;;;;;;5116302;28;20059;-59
2022/12/08 06:31:53;;;;;;;6.63;5.07;;;;;;;;;;5116314;28;20069;-60
2022/12/08 06:34:19;;;;;;;6.72;5.13;;;;;;;;;;5116199;28;20059;-59
2022/12/08 06:36:44;;;;;;;6.78;4.97;;;;;;;;;;5110756;28;20032;-60
2022/12/08 06:39:10;;;;;;;6.63;5.15;;;;;;;;;;5111514;28;20096;-60
2022/12/08 06:42:42;;;;;;;6.57;4.75;;;;;;;;;;5109639;28;20030;-59
2022/12/08 06:44:21;;;;;;;5.18;4.57;;;;;;;;;;5109798;28;20023;-60
2022/12/08 06:46:47;;;;;;;6.40;5.00;;;;;;;;;;5091496;28;20051;-60
2022/12/08 06:49:12;;;;;;;6.40;5.15;;;;;;;;;;5110292;28;20098;-60
2022/12/08 06:51:38;;;;;;;7.28;5.43;;;;;;;;;;5107435;28;20019;-59
2022/12/08 06:54:03;;;;;;;6.85;5.03;;;;;;;;;;5111469;28;20111;-60
2022/12/08 06:56:29;;;;;;;6.97;5.00;;;;;;;;;;5108065;27;20019;-59
2022/12/08 06:58:54;;;;;;;6.30;4.80;;;;;;;;;;5113004;28;20069;-60
2022/12/08 07:01:20;;;;;;;7.35;5.03;;;;;;;;;;5115879;28;20023;-59
2022/12/08 07:03:46;;;;;;;6.25;4.60;;;;;;;;;;5115955;28;20421;-59
2022/12/08 07:06:24;;;;;;;7.38;5.47;;;;;;;;;;5115673;28;20058;-60
2022/12/08 07:08:49;;;;;;;6.03;4.72;;;;;;;;;;5115570;28;20482;-60
2022/12/08 07:11:16;;;;;;;7.00;4.93;;;;;;;;;;5113088;27;20034;-60
2022/12/08 07:13:41;;;;;;;5.82;4.68;;;;;;;;;;5115799;28;20078;-59
2022/12/08 07:16:08;;;;;;;8.25;4.97;;;;;;;;;;5114807;27;20587;-60
2022/12/08 07:18:34;;;;;;;7.88;5.22;;;;;;;;;;5115333;28;20099;-60
2022/12/08 07:21:08;;;;;;;6.97;5.13;;;;;;;;;;5114521;28;20076;-59
2022/12/08 07:23:34;;;;;;;6.80;5.07;;;;;;;;;;5115595;28;20016;-59
2022/12/08 07:26:01;;;;;;;8.10;5.38;;;;;;;;;;5115076;28;20026;-59
2022/12/08 07:28:30;;;;;;;10.13;5.22;;;;;;;;;;5115025;27;20036;-59
2022/12/08 07:30:56;;;;;;;9.20;5.30;;;;;;;;;;5115180;28;20420;-59
2022/12/08 07:33:21;;;;;;;6.20;4.97;;;;;;;;;;5096784;28;20032;-60
2022/12/08 07:35:58;;;;;;;7.97;5.32;;;;;;;;;;5108979;28;20166;-59
2022/12/08 07:38:24;;;;;;;6.15;5.28;;;;;;;;;;5094271;28;20376;-59
2022/12/08 07:40:51;;;;;;;6.93;5.28;;;;;;;;;;5094205;28;20024;-59
2022/12/08 07:43:17;;;;;;;7.85;5.00;;;;;;;;;;5106254;28;20120;-59
2022/12/08 07:45:43;;;;;;;6.82;5.18;;;;;;;;;;5110840;28;20015;-59
2022/12/08 07:48:09;;;;;;;6.25;5.35;;;;;;;;;;5102518;28;20073;-59
2022/12/08 07:50:34;;;;;;;7.85;5.40;;;;;;;;;;5108675;28;20028;-60
2022/12/08 07:53:00;;;;;;;8.13;4.88;;;;;;;;;;5111064;28;20391;-59
2022/12/08 07:55:25;;;;;;;8.77;5.03;;;;;;;;;;5106925;28;20176;-60
2022/12/08 07:57:51;;;;;;;6.82;5.07;;;;;;;;;;5106988;27;20038;-59
2022/12/08 08:00:18;;;;;;;7.25;5.60;;;;;;;;;;5097781;28;20028;-60
2022/12/08 08:02:44;;;;;;;7.18;5.05;;;;;;;;;;5111787;28;20404;-59
2022/12/08 08:05:13;;;;;;;6.57;5.07;;;;;;;;;;5112948;28;20471;-59
2022/12/08 08:07:44;;;;;;;7.05;5.25;;;;;;;;;;5112879;28;20092;-60
2022/12/08 08:10:10;;;;;;;8.18;5.05;;;;;;;;;;5113249;28;20243;-59
2022/12/08 08:12:36;;;;;;;5.70;4.85;;;;;;;;;;5112801;28;20020;-59
2022/12/08 08:15:06;;;;;;;7.82;5.15;;;;;;;;;;5110844;28;20498;-59
2022/12/08 08:17:32;;;;;;;6.85;5.38;;;;;;;;;;5112464;28;20046;-60
2022/12/08 08:19:58;;;;;;;8.35;5.25;;;;;;;;;;5109765;28;20032;-59
2022/12/08 08:22:25;;;;;;;7.03;5.60;;;;;;;;;;5112038;28;20028;-59
2022/12/08 08:24:51;;;;;;;6.45;4.90;;;;;;;;;;5111181;28;20028;-59
2022/12/08 08:27:17;;;;;;;8.27;5.38;;;;;;;;;;5111102;28;20061;-60
2022/12/08 08:29:42;;;;;;;7.95;5.40;;;;;;;;;;5110169;28;20038;-60
2022/12/08 08:32:07;;;;;;;7.70;5.28;;;;;;;;;;5112887;28;20027;-60
2022/12/08 08:34:33;;;;;;;7.28;5.32;;;;;;;;;;5112794;28;20360;-60
2022/12/08 08:36:58;;;;;;;7.32;5.30;;;;;;;;;;5108789;28;20084;-59
2022/12/08 08:39:24;;;;;;;7.45;5.38;;;;;;;;;;5111085;28;20069;-59
2022/12/08 08:41:49;;;;;;;5.50;4.63;;;;;;;;;;5108737;27;20085;-59
2022/12/08 08:44:15;;;;;;;7.07;5.13;;;;;;;;;;5093510;28;20855;-60
2022/12/08 08:46:40;;;;;;;6.07;5.22;;;;;;;;;;5098550;27;20123;-60
2022/12/08 08:49:06;;;;;;;7.35;5.30;;;;;;;;;;5092113;28;20050;-60
2022/12/08 08:51:32;;;;;;;7.53;5.60;;;;;;;;;;5097053;28;20383;-61
2022/12/08 08:53:58;;;;;;;6.88;5.00;;;;;;;;;;5110456;28;20062;-60
2022/12/08 08:56:24;;;;;;;6.30;5.22;;;;;;;;;;5110671;28;20074;-60
2022/12/08 08:58:51;;;;;;;6.82;5.43;;;;;;;;;;5110824;28;20023;-60
2022/12/08 09:01:20;;;;;;;6.22;4.80;;;;;;;;;;5111971;28;20747;-61
2022/12/08 09:03:47;;;;;;;7.47;5.30;;;;;;;;;;5097486;28;20081;-61
2022/12/08 09:06:13;;;;;;;7.75;5.20;;;;;;;;;;5091574;28;20028;-61
2022/12/08 09:08:40;;;;;;;6.05;5.03;;;;;;;;;;5091671;28;20032;-60
2022/12/08 09:11:06;;;;;;;6.90;4.90;;;;;;;;;;5091348;28;20028;-60
2022/12/08 09:13:32;;;;;;;12.50;5.10;;;;;;;;;;5091296;28;20119;-61
2022/12/08 09:16:01;;;;;;;9.02;5.18;;;;;;;;;;5093219;28;20184;-60
2022/12/08 09:18:26;;;;;;;7.07;5.15;;;;;;;;;;5091377;28;20024;-61
2022/12/08 09:20:52;;;;;;;7.57;5.25;;;;;;;;;;5109522;28;20054;-61
2022/12/08 09:23:18;;;;;;;10.88;5.53;;;;;;;;;;5108910;28;20024;-60
2022/12/08 09:25:44;;;;;;;7.38;5.40;;;;;;;;;;5104691;28;20047;-61
2022/12/08 09:28:10;;;;;;;9.02;5.45;;;;;;;;;;5108993;28;20484;-60
2022/12/08 09:30:36;;;;;;;6.63;5.07;;;;;;;;;;5108245;28;20106;-61
2022/12/08 09:33:02;;;;;;;6.13;4.75;;;;;;;;;;5109275;28;20151;-61
2022/12/08 09:35:27;;;;;;;9.55;5.32;;;;;;;;;;5111259;28;20062;-60
2022/12/08 09:37:53;;;;;;;6.93;5.63;;;;;;;;;;5111108;28;20121;-61
2022/12/08 09:40:21;;;;;;;7.30;5.18;;;;;;;;;;5109571;28;20034;-61
2022/12/08 09:42:51;;;;;;;7.55;5.25;;;;;;;;;;5098145;28;20116;-60
2022/12/08 09:45:17;;;;;;;7.15;4.95;;;;;;;;;;5090320;28;20039;-60
2022/12/08 09:47:47;;;;;;;6.32;5.03;;;;;;;;;;5090059;28;20139;-60
2022/12/08 09:50:29;;;;;;;;;;;;;;;;;;5091489;28;20023;-61
2022/12/08 09:53:26;;;;;;;7.13;5.20;;;;;;;;;;5091662;28;19992;-61
2022/12/08 09:55:56;;;;;;;5.40;4.68;;;;;;;;;;5108069;28;20046;-60
2022/12/08 09:58:49;;;;;;;6.85;5.22;;;;;;;;;;5108363;28;20023;-60
2022/12/08 10:01:14;;;;;;;8.93;5.30;;;;;;;;;;5108399;28;20028;-60
2022/12/08 10:03:41;;;;;;;7.45;5.10;;;;;;;;;;5109472;28;20031;-61
2022/12/08 10:06:50;;;;;;;8.77;5.30;;;;;;;;;;5111239;28;20092;-61
2022/12/08 10:09:28;;;;;;;6.97;4.97;;;;;;;;;;5087686;28;20450;-61
2022/12/08 10:11:59;;;;;;;6.85;4.78;;;;;;;;;;5090511;28;20056;-62
2022/12/08 10:14:39;;;;;;;7.03;5.28;;;;;;;;;;5090802;28;20032;-61
2022/12/08 10:17:12;;;;;;;;;;;;;;;;;;5098729;28;20065;-61
2022/12/08 10:19:41;;;;;;;5.93;4.85;;;;;;;;;;5110716;28;20534;-61
2022/12/08 10:22:21;;;;;;;5.75;4.47;;;;;;;;;;5111137;28;20032;-61
2022/12/08 10:24:59;;;;;;;6.40;4.63;;;;;;;;;;5100067;28;20024;-62
2022/12/08 10:27:26;;;;;;;9.63;4.80;;;;;;;;;;5090783;28;20057;-62
2022/12/08 10:29:51;;;;;;;7.03;5.22;;;;;;;;;;5072086;28;20388;-62
2022/12/08 10:32:21;;;;;;;7.88;4.78;;;;;;;;;;5090328;28;20027;-62
2022/12/08 10:35:11;;;;;;;8.00;4.90;;;;;;;;;;5090548;28;20020;-62
2022/12/08 10:37:38;;;;;;;9.30;4.95;;;;;;;;;;5102618;28;20107;-60
2022/12/08 10:40:16;;;;;;;9.75;4.97;;;;;;;;;;5110891;28;20027;-61
2022/12/08 10:42:55;;;;;;;6.32;4.90;;;;;;;;;;5110662;28;20032;-61
2022/12/08 10:45:36;;;;;;;7.03;4.90;;;;;;;;;;5110519;28;20024;-61
2022/12/08 10:48:05;;;;;;;6.13;4.70;;;;;;;;;;5110164;28;20058;-61
2022/12/08 10:50:35;;;;;;;6.60;4.90;;;;;;;;;;5110725;28;20118;-61
2022/12/08 10:53:09;;;;;;;6.82;5.05;;;;;;;;;;5110757;28;20058;-61
2022/12/08 10:55:46;;;;;;;51.33;12.35;;;;;;;;;;5110508;28;20039;-61
2022/12/08 10:58:34;;;;;;;18.80;6.47;;;;;;;;;;5114003;28;20106;-62
2022/12/08 11:01:03;;;;;;;10.20;5.35;;;;;;;;;;5113011;28;20023;-62
2022/12/08 11:03:33;;;;;;;6.63;4.70;;;;;;;;;;5114150;28;20486;-62
2022/12/08 11:06:00;;;;;;;13.98;5.05;;;;;;;;;;5114289;28;20513;-61
2022/12/08 11:08:27;;;;;;;15.82;6.05;;;;;;;;;;5114164;28;20150;-61
2022/12/08 11:10:53;;;;;;;12.05;5.22;;;;;;;;;;5114368;27;20032;-61
2022/12/08 11:13:25;;;;;;;20.80;7.57;;;;;;;;;;5113979;28;20387;-61
2022/12/08 11:15:53;;;;;;;13.82;6.75;;;;;;;;;;5113961;28;20066;-63
2022/12/08 11:18:43;;;;;;;13.13;6.95;;;;;;;;;;5114100;28;20023;-62
2022/12/08 11:21:16;;;;;;;16.63;6.80;;;;;;;;;;5110961;28;20040;-62
2022/12/08 11:23:46;;;;;;;34.20;8.90;;;;;;;;;;5113971;28;20411;-61
2022/12/08 11:26:24;;;;;;;15.07;6.70;;;;;;;;;;5114311;28;20024;-62
2022/12/08 11:28:50;;;;;;;15.75;6.85;;;;;;;;;;5113857;28;20501;-62
2022/12/08 11:31:30;;;;;;;14.25;7.05;;;;;;;;;;5113976;28;20110;-63
2022/12/08 11:33:56;;;;;;;13.65;7.15;;;;;;;;;;5113493;28;20053;-62
2022/12/08 11:36:25;;;;;;;44.30;7.97;;;;;;;;;;5113633;28;20043;-62
2022/12/08 11:38:55;;;;;;;21.83;7.00;;;;;;;;;;5113387;28;20479;-62
2022/12/08 11:41:31;;;;;;;22.98;7.10;;;;;;;;;;5113426;28;20471;-62
2022/12/08 11:44:19;;;;;;;28.98;7.72;;;;;;;;;;5113534;28;20027;-62
2022/12/08 11:46:51;;;;;;;15.90;7.43;;;;;;;;;;5111855;28;20483;-62
2022/12/08 11:49:17;;;;;;;15.65;7.03;;;;;;;;;;5113326;28;20028;-62
2022/12/08 11:52:10;;;;;;;12.18;6.65;;;;;;;;;;5113409;28;20055;-62
2022/12/08 11:54:44;;;;;;;13.40;6.57;;;;;;;;;;5113105;28;20445;-62
2022/12/08 11:57:19;;;;;;;27.08;9.07;;;;;;;;;;5109668;28;20034;-61
2022/12/08 11:59:49;;;;;;;20.38;7.80;;;;;;;;;;5111726;28;20107;-62
2022/12/08 12:02:19;;;;;;;16.42;7.53;;;;;;;;;;5112608;28;20031;-62
2022/12/08 12:05:03;;;;;;;21.83;7.55;;;;;;;;;;5113325;28;20112;-61
2022/12/08 12:07:53;;;;;;;20.27;7.10;;;;;;;;;;5112484;28;20475;-62
2022/12/08 12:10:34;;;;;;;11.00;6.57;;;;;;;;;;5113003;28;20056;-62
2022/12/08 12:13:09;;;;;;;15.55;6.93;;;;;;;;;;5112807;28;20474;-61
2022/12/08 12:16:12;;;;;;;10.68;6.60;;;;;;;;;;5113249;28;20042;-61
2022/12/08 12:18:52;;;;;;;8.98;6.25;;;;;;;;;;5109104;28;20035;-62
2022/12/08 12:21:20;;;;;;;24.45;6.68;;;;;;;;;;5107533;28;20023;-62
2022/12/08 12:23:57;;;;;;;14.60;6.82;;;;;;;;;;5112829;28;20066;-62
2022/12/08 12:26:35;;;;;;;7.70;6.13;;;;;;;;;;5112584;28;20055;-61
2022/12/08 12:29:18;;;;;;;14.10;7.13;;;;;;;;;;5112358;28;20451;-62
2022/12/08 12:31:52;;;;;;;10.63;6.93;;;;;;;;;;5111290;28;20039;-62
2022/12/08 12:34:27;;;;;;;8.88;6.65;;;;;;;;;;5108004;28;20027;-62
2022/12/08 12:37:16;;;;;;;9.70;6.25;;;;;;;;;;5110816;28;20027;-62
2022/12/08 12:39:52;;;;;;;9.95;6.15;;;;;;;;;;5112162;27;20042;-62
2022/12/08 12:42:50;;;;;;;15.10;6.55;;;;;;;;;;5110883;28;20031;-62
2022/12/08 12:45:16;;;;;;;22.08;7.07;;;;;;;;;;5110577;28;20035;-63
2022/12/08 12:47:51;;;;;;;12.70;6.97;;;;;;;;;;5110949;28;20410;-62
2022/12/08 12:50:32;;;;;;;10.75;6.93;;;;;;;;;;5107854;28;20038;-62
2022/12/08 12:53:02;;;;;;;8.95;6.72;;;;;;;;;;5112444;28;20713;-62
2022/12/08 12:55:53;;;;;;;9.18;6.47;;;;;;;;;;5112235;28;20028;-62
2022/12/08 12:58:33;;;;;;;9.55;6.60;;;;;;;;;;5112316;28;20071;-62
2022/12/08 13:01:13;;;;;;;9.70;6.10;;;;;;;;;;5111880;28;20050;-62
2022/12/08 13:03:43;;;;;;;9.45;6.75;;;;;;;;;;5111920;28;20486;-62
2022/12/08 13:06:12;;;;;;;8.40;6.20;;;;;;;;;;5110378;28;20036;-62
2022/12/08 13:08:48;;;;;;;8.63;6.30;;;;;;;;;;5112006;28;20403;-62
2022/12/08 13:11:14;;;;;;;13.20;5.82;;;;;;;;;;5109271;28;20027;-62
2022/12/08 13:14:03;;;;;;;8.35;6.57;;;;;;;;;;5109233;27;20529;-62
2022/12/08 13:16:35;;;;;;;8.73;6.53;;;;;;;;;;5108460;28;20042;-62
2022/12/08 13:19:04;;;;;;;7.75;5.88;;;;;;;;;;5108779;28;20119;-62
2022/12/08 13:21:38;;;;;;;10.45;6.95;;;;;;;;;;5110160;28;20026;-63
2022/12/08 13:24:11;;;;;;;13.25;5.72;;;;;;;;;;5109649;28;20038;-62
2022/12/08 13:26:45;;;;;;;13.38;5.85;;;;;;;;;;5111711;28;20031;-62
2022/12/08 13:29:23;;;;;;;16.25;6.30;;;;;;;;;;5111265;28;20059;-62
2022/12/08 13:31:55;;;;;;;10.27;6.22;;;;;;;;;;5111701;28;20047;-62
2022/12/08 13:34:40;;;;;;;7.53;5.90;;;;;;;;;;5111270;28;20051;-61
2022/12/08 13:37:12;;;;;;;8.20;6.40;;;;;;;;;;5111740;28;20710;-62
2022/12/08 13:39:37;;;;;;;8.68;5.50;;;;;;;;;;5106332;28;20051;-62
2022/12/08 13:42:27;;;;;;;8.38;5.38;;;;;;;;;;5109660;28;20035;-61
2022/12/08 13:45:00;;;;;;;6.82;5.45;;;;;;;;;;5103757;28;20402;-62
2022/12/08 13:47:57;;;;;;;9.63;5.68;;;;;;;;;;5107880;28;20051;-62
2022/12/08 13:50:44;;;;;;;10.93;5.65;;;;;;;;;;5107984;28;20055;-61
2022/12/08 13:53:18;;;;;;;8.88;5.40;;;;;;;;;;5106818;28;20152;-62
2022/12/08 13:55:51;;;;;;;6.68;5.63;;;;;;;;;;5111247;28;20039;-62
2022/12/08 13:58:17;;;;;;;6.85;5.60;;;;;;;;;;5108775;28;20020;-62
2022/12/08 14:00:51;;;;;;;13.05;6.00;;;;;;;;;;5111025;28;20395;-60
2022/12/08 14:03:17;;;;;;;7.63;5.30;;;;;;;;;;5111572;28;20032;-62
2022/12/08 14:05:43;;;;;;;13.70;5.47;;;;;;;;;;5109945;28;20463;-61
2022/12/08 14:08:25;;;;;;;9.68;5.30;;;;;;;;;;5111111;28;20027;-62
2022/12/08 14:10:57;;;;;;;7.30;4.70;;;;;;;;;;5106870;28;20883;-62
2022/12/08 14:13:23;;;;;;;12.13;5.07;;;;;;;;;;5111306;28;20031;-62
2022/12/08 14:15:49;;;;;;;7.55;5.03;;;;;;;;;;5109419;28;20020;-62
2022/12/08 14:18:41;;;;;;;6.70;4.30;;;;;;;;;;5109559;28;20732;-62
2022/12/08 14:21:11;;;;;;;12.45;4.93;;;;;;;;;;5109760;28;20126;-61
2022/12/08 14:23:37;;;;;;;6.45;4.45;;;;;;;;;;5109588;28;20023;-61
2022/12/08 14:26:04;;;;;;;9.77;4.63;;;;;;;;;;5110930;28;20027;-62
2022/12/08 14:28:32;;;;;;;10.13;5.60;;;;;;;;;;5107728;28;20059;-62
2022/12/08 14:30:58;;;;;;;7.53;4.90;;;;;;;;;;5112585;28;20043;-61
2022/12/08 14:33:25;;;;;;;5.93;4.80;;;;;;;;;;5112922;28;20031;-61
2022/12/08 14:35:54;;;;;;;7.32;4.78;;;;;;;;;;5114993;28;20028;-61
2022/12/08 14:38:21;;;;;;;10.68;5.65;;;;;;;;;;5114569;28;20464;-61
2022/12/08 14:41:03;;;;;;;7.57;5.28;;;;;;;;;;5115004;27;20107;-62
2022/12/08 14:43:29;;;;;;;7.93;5.22;;;;;;;;;;5114571;28;20152;-61
2022/12/08 14:46:00;;;;;;;8.25;4.85;;;;;;;;;;5114421;28;20035;-61
2022/12/08 14:48:37;;;;;;;8.80;5.25;;;;;;;;;;5114300;28;20233;-61
2022/12/08 14:51:03;;;;;;;13.02;5.55;;;;;;;;;;5114580;28;20053;-62
2022/12/08 14:53:42;;;;;;;7.25;5.00;;;;;;;;;;5114489;28;20027;-62
2022/12/08 14:56:21;;;;;;;10.95;4.50;;;;;;;;;;5114447;28;20028;-62
2022/12/08 14:58:49;;;;;;;11.87;5.63;;;;;;;;;;5111932;28;20429;-62
2022/12/08 15:01:21;;;;;;;8.30;4.30;;;;;;;;;;5110417;28;20047;-62
2022/12/08 15:03:47;;;;;;;17.80;4.72;;;;;;;;;;5114744;27;20039;-62
2022/12/08 15:06:13;;;;;;;8.15;4.90;;;;;;;;;;5114213;28;20357;-62
2022/12/08 15:08:57;;;;;;;9.68;4.53;;;;;;;;;;5112810;28;20028;-61